sensor_id;sensor_type;location;lat;lon;timestamp;P1;durP1;ratioP1;P2;durP2;ratioP2
31724;SDS011;18306;40.960;14.836;2023-06-14T00:00:28;11.52;;;5.28;;
31724;SDS011;18306;40.960;14.836;2023-06-14T00:02:55;13.93;;;6.22;;
31724;SDS011;18306;40.960;14.836;2023-06-14T00:05:23;7.55;;;4.30;;
31724;SDS011;18306;40.960;14.836;2023-06-14T00:07:50;9.77;;;4.07;;
31724;SDS011;18306;40.960;14.836;2023-06-14T00:10:19;9.63;;;5.22;;
31724;SDS011;18306;40.960;14.836;2023-06-14T00:12:46;8.07;;;4.55;;
31724;SDS011;18306;40.960;14.836;2023-06-14T00:15:16;14.80;;;5.30;;
31724;SDS011;18306;40.960;14.836;2023-06-14T00:17:43;13.18;;;4.95;;
31724;SDS011;18306;40.960;14.836;2023-06-14T00:20:13;9.27;;;5.32;;
31724;SDS011;18306;40.960;14.836;2023-06-14T00:22:40;9.88;;;6.07;;
31724;SDS011;18306;40.960;14.836;2023-06-14T00:25:08;9.88;;;5.63;;
31724;SDS011;18306;40.960;14.836;2023-06-14T00:27:37;11.27;;;6.15;;
31724;SDS011;18306;40.960;14.836;2023-06-14T00:30:05;10.68;;;4.95;;
31724;SDS011;18306;40.960;14.836;2023-06-14T00:32:36;7.10;;;4.97;;
31724;SDS011;18306;40.960;14.836;2023-06-14T00:35:03;9.23;;;5.90;;
31724;SDS011;18306;40.960;14.836;2023-06-14T00:37:35;16.88;;;5.40;;
31724;SDS011;18306;40.960;14.836;2023-06-14T00:40:02;8.88;;;5.82;;
31724;SDS011;18306;40.960;14.836;2023-06-14T00:42:31;14.20;;;6.35;;
31724;SDS011;18306;40.960;14.836;2023-06-14T00:44:59;9.10;;;5.35;;
31724;SDS011;18306;40.960;14.836;2023-06-14T00:47:26;6.80;;;4.32;;
31724;SDS011;18306;40.960;14.836;2023-06-14T00:49:53;9.77;;;5.55;;
31724;SDS011;18306;40.960;14.836;2023-06-14T00:52:23;8.43;;;4.28;;
31724;SDS011;18306;40.960;14.836;2023-06-14T00:54:51;7.75;;;3.70;;
31724;SDS011;18306;40.960;14.836;2023-06-14T00:57:19;13.48;;;4.88;;
31724;SDS011;18306;40.960;14.836;2023-06-14T00:59:47;6.13;;;3.67;;
31724;SDS011;18306;40.960;14.836;2023-06-14T01:02:16;7.53;;;4.43;;
31724;SDS011;18306;40.960;14.836;2023-06-14T01:04:47;10.43;;;5.00;;
31724;SDS011;18306;40.960;14.836;2023-06-14T01:12:58;7.00;;;4.43;;
31724;SDS011;18306;40.960;14.836;2023-06-14T01:15:35;7.18;;;4.10;;
31724;SDS011;18306;40.960;14.836;2023-06-14T01:18:03;11.00;;;4.78;;
31724;SDS011;18306;40.960;14.836;2023-06-14T01:20:32;9.45;;;4.55;;
31724;SDS011;18306;40.960;14.836;2023-06-14T01:23:03;6.70;;;5.07;;
31724;SDS011;18306;40.960;14.836;2023-06-14T01:25:34;8.75;;;5.13;;
31724;SDS011;18306;40.960;14.836;2023-06-14T01:28:02;11.45;;;5.22;;
31724;SDS011;18306;40.960;14.836;2023-06-14T01:33:15;11.63;;;5.68;;
31724;SDS011;18306;40.960;14.836;2023-06-14T01:35:45;7.03;;;4.50;;
31724;SDS011;18306;40.960;14.836;2023-06-14T01:38:20;8.50;;;4.55;;
31724;SDS011;18306;40.960;14.836;2023-06-14T01:40:52;12.68;;;5.00;;
31724;SDS011;18306;40.960;14.836;2023-06-14T01:43:22;9.23;;;4.07;;
31724;SDS011;18306;40.960;14.836;2023-06-14T01:45:49;7.47;;;4.50;;
31724;SDS011;18306;40.960;14.836;2023-06-14T01:48:21;9.63;;;4.80;;
31724;SDS011;18306;40.960;14.836;2023-06-14T01:50:49;8.15;;;4.85;;
31724;SDS011;18306;40.960;14.836;2023-06-14T01:53:17;7.70;;;5.00;;
31724;SDS011;18306;40.960;14.836;2023-06-14T01:55:47;9.75;;;4.90;;
31724;SDS011;18306;40.960;14.836;2023-06-14T01:58:15;6.32;;;4.75;;
31724;SDS011;18306;40.960;14.836;2023-06-14T02:00:45;5.93;;;3.97;;
31724;SDS011;18306;40.960;14.836;2023-06-14T02:03:13;11.60;;;4.57;;
31724;SDS011;18306;40.960;14.836;2023-06-14T02:05:41;13.07;;;5.18;;
31724;SDS011;18306;40.960;14.836;2023-06-14T02:08:09;9.25;;;5.28;;
31724;SDS011;18306;40.960;14.836;2023-06-14T02:10:37;8.20;;;5.18;;
31724;SDS011;18306;40.960;14.836;2023-06-14T02:13:04;8.60;;;3.88;;
31724;SDS011;18306;40.960;14.836;2023-06-14T02:15:32;3.95;;;3.53;;
31724;SDS011;18306;40.960;14.836;2023-06-14T02:18:02;5.47;;;4.75;;
31724;SDS011;18306;40.960;14.836;2023-06-14T02:20:32;10.02;;;5.03;;
31724;SDS011;18306;40.960;14.836;2023-06-14T02:22:59;9.05;;;4.30;;
31724;SDS011;18306;40.960;14.836;2023-06-14T02:25:27;9.38;;;4.50;;
31724;SDS011;18306;40.960;14.836;2023-06-14T02:27:54;10.40;;;5.18;;
31724;SDS011;18306;40.960;14.836;2023-06-14T02:30:22;11.68;;;5.78;;
31724;SDS011;18306;40.960;14.836;2023-06-14T02:32:52;9.40;;;5.70;;
31724;SDS011;18306;40.960;14.836;2023-06-14T02:35:19;11.40;;;5.35;;
31724;SDS011;18306;40.960;14.836;2023-06-14T02:37:48;9.05;;;5.38;;
31724;SDS011;18306;40.960;14.836;2023-06-14T02:40:15;10.65;;;6.30;;
31724;SDS011;18306;40.960;14.836;2023-06-14T02:42:42;14.00;;;6.18;;
31724;SDS011;18306;40.960;14.836;2023-06-14T02:45:09;12.93;;;7.20;;
31724;SDS011;18306;40.960;14.836;2023-06-14T02:47:36;10.32;;;6.82;;
31724;SDS011;18306;40.960;14.836;2023-06-14T02:50:04;9.43;;;5.93;;
31724;SDS011;18306;40.960;14.836;2023-06-14T02:52:33;11.25;;;6.90;;
31724;SDS011;18306;40.960;14.836;2023-06-14T02:55:00;12.65;;;7.53;;
31724;SDS011;18306;40.960;14.836;2023-06-14T02:57:27;12.68;;;7.40;;
31724;SDS011;18306;40.960;14.836;2023-06-14T02:59:54;10.70;;;5.95;;
31724;SDS011;18306;40.960;14.836;2023-06-14T03:02:21;15.85;;;7.22;;
31724;SDS011;18306;40.960;14.836;2023-06-14T03:04:48;12.85;;;6.63;;
31724;SDS011;18306;40.960;14.836;2023-06-14T03:07:19;11.52;;;6.72;;
31724;SDS011;18306;40.960;14.836;2023-06-14T03:09:48;16.70;;;7.25;;
31724;SDS011;18306;40.960;14.836;2023-06-14T03:12:16;11.57;;;5.85;;
31724;SDS011;18306;40.960;14.836;2023-06-14T03:14:44;12.48;;;6.50;;
31724;SDS011;18306;40.960;14.836;2023-06-14T03:17:14;11.75;;;5.70;;
31724;SDS011;18306;40.960;14.836;2023-06-14T03:19:43;12.05;;;6.55;;
31724;SDS011;18306;40.960;14.836;2023-06-14T03:22:10;10.15;;;5.28;;
31724;SDS011;18306;40.960;14.836;2023-06-14T03:24:39;9.18;;;5.13;;
31724;SDS011;18306;40.960;14.836;2023-06-14T03:27:13;10.95;;;6.47;;
31724;SDS011;18306;40.960;14.836;2023-06-14T03:29:44;9.52;;;5.65;;
31724;SDS011;18306;40.960;14.836;2023-06-14T03:32:11;12.68;;;6.75;;
31724;SDS011;18306;40.960;14.836;2023-06-14T03:34:41;14.90;;;6.25;;
31724;SDS011;18306;40.960;14.836;2023-06-14T03:37:14;9.25;;;6.10;;
31724;SDS011;18306;40.960;14.836;2023-06-14T03:39:41;9.85;;;6.22;;
31724;SDS011;18306;40.960;14.836;2023-06-14T03:42:15;13.30;;;6.35;;
31724;SDS011;18306;40.960;14.836;2023-06-14T03:44:43;11.15;;;6.53;;
31724;SDS011;18306;40.960;14.836;2023-06-14T03:47:11;15.75;;;6.75;;
31724;SDS011;18306;40.960;14.836;2023-06-14T03:49:41;12.40;;;5.95;;
31724;SDS011;18306;40.960;14.836;2023-06-14T03:52:08;11.32;;;6.75;;
31724;SDS011;18306;40.960;14.836;2023-06-14T03:54:38;12.05;;;7.32;;
31724;SDS011;18306;40.960;14.836;2023-06-14T03:57:05;12.70;;;5.65;;
31724;SDS011;18306;40.960;14.836;2023-06-14T03:59:33;17.23;;;6.15;;
31724;SDS011;18306;40.960;14.836;2023-06-14T04:02:00;14.90;;;5.25;;
31724;SDS011;18306;40.960;14.836;2023-06-14T04:04:27;18.77;;;5.45;;
31724;SDS011;18306;40.960;14.836;2023-06-14T04:06:56;6.88;;;4.80;;
31724;SDS011;18306;40.960;14.836;2023-06-14T04:09:26;9.50;;;5.60;;
31724;SDS011;18306;40.960;14.836;2023-06-14T04:11:53;12.75;;;5.78;;
31724;SDS011;18306;40.960;14.836;2023-06-14T04:14:21;8.20;;;4.85;;
31724;SDS011;18306;40.960;14.836;2023-06-14T04:16:48;6.85;;;4.57;;
31724;SDS011;18306;40.960;14.836;2023-06-14T04:19:18;7.90;;;5.53;;
31724;SDS011;18306;40.960;14.836;2023-06-14T04:21:45;7.43;;;4.28;;
31724;SDS011;18306;40.960;14.836;2023-06-14T04:24:14;9.23;;;5.00;;
31724;SDS011;18306;40.960;14.836;2023-06-14T04:26:48;11.27;;;5.23;;
31724;SDS011;18306;40.960;14.836;2023-06-14T04:29:22;8.00;;;5.05;;
31724;SDS011;18306;40.960;14.836;2023-06-14T04:32:03;7.63;;;4.72;;
31724;SDS011;18306;40.960;14.836;2023-06-14T04:34:41;15.57;;;4.28;;
31724;SDS011;18306;40.960;14.836;2023-06-14T04:37:25;11.05;;;5.10;;
31724;SDS011;18306;40.960;14.836;2023-06-14T04:39:58;8.68;;;4.75;;
31724;SDS011;18306;40.960;14.836;2023-06-14T04:42:25;9.27;;;4.68;;
31724;SDS011;18306;40.960;14.836;2023-06-14T04:44:58;7.30;;;4.55;;
31724;SDS011;18306;40.960;14.836;2023-06-14T04:47:27;6.35;;;4.53;;
31724;SDS011;18306;40.960;14.836;2023-06-14T04:49:57;8.15;;;4.45;;
31724;SDS011;18306;40.960;14.836;2023-06-14T04:52:29;6.10;;;3.67;;
31724;SDS011;18306;40.960;14.836;2023-06-14T04:54:59;6.80;;;4.25;;
31724;SDS011;18306;40.960;14.836;2023-06-14T04:57:27;4.78;;;4.00;;
31724;SDS011;18306;40.960;14.836;2023-06-14T04:59:59;4.75;;;3.65;;
31724;SDS011;18306;40.960;14.836;2023-06-14T05:02:28;7.75;;;4.40;;
31724;SDS011;18306;40.960;14.836;2023-06-14T05:04:59;6.78;;;3.85;;
31724;SDS011;18306;40.960;14.836;2023-06-14T05:10:03;4.88;;;3.92;;
31724;SDS011;18306;40.960;14.836;2023-06-14T05:12:33;6.28;;;3.80;;
31724;SDS011;18306;40.960;14.836;2023-06-14T05:15:01;5.65;;;3.60;;
31724;SDS011;18306;40.960;14.836;2023-06-14T05:17:31;5.90;;;4.10;;
31724;SDS011;18306;40.960;14.836;2023-06-14T05:19:58;9.48;;;5.20;;
31724;SDS011;18306;40.960;14.836;2023-06-14T05:22:26;11.25;;;4.35;;
31724;SDS011;18306;40.960;14.836;2023-06-14T05:24:53;9.80;;;5.63;;
31724;SDS011;18306;40.960;14.836;2023-06-14T05:27:20;8.52;;;4.70;;
31724;SDS011;18306;40.960;14.836;2023-06-14T05:29:47;13.52;;;5.65;;
31724;SDS011;18306;40.960;14.836;2023-06-14T05:32:14;12.25;;;6.65;;
31724;SDS011;18306;40.960;14.836;2023-06-14T05:34:42;9.95;;;5.68;;
31724;SDS011;18306;40.960;14.836;2023-06-14T05:37:09;15.63;;;7.00;;
31724;SDS011;18306;40.960;14.836;2023-06-14T05:39:39;15.98;;;6.93;;
31724;SDS011;18306;40.960;14.836;2023-06-14T05:42:06;19.63;;;5.70;;
31724;SDS011;18306;40.960;14.836;2023-06-14T05:44:33;10.15;;;4.70;;
31724;SDS011;18306;40.960;14.836;2023-06-14T05:47:01;9.95;;;5.63;;
31724;SDS011;18306;40.960;14.836;2023-06-14T05:49:28;9.77;;;5.30;;
31724;SDS011;18306;40.960;14.836;2023-06-14T05:51:58;8.00;;;5.20;;
31724;SDS011;18306;40.960;14.836;2023-06-14T05:54:25;9.50;;;5.40;;
31724;SDS011;18306;40.960;14.836;2023-06-14T05:56:52;8.80;;;5.15;;
31724;SDS011;18306;40.960;14.836;2023-06-14T05:59:27;5.82;;;4.43;;
31724;SDS011;18306;40.960;14.836;2023-06-14T06:01:54;7.35;;;5.15;;
31724;SDS011;18306;40.960;14.836;2023-06-14T06:04:22;12.18;;;4.68;;
31724;SDS011;18306;40.960;14.836;2023-06-14T06:06:49;4.45;;;3.95;;
31724;SDS011;18306;40.960;14.836;2023-06-14T06:09:16;8.82;;;4.95;;
31724;SDS011;18306;40.960;14.836;2023-06-14T06:11:43;6.43;;;4.70;;
31724;SDS011;18306;40.960;14.836;2023-06-14T06:14:10;10.23;;;5.53;;
31724;SDS011;18306;40.960;14.836;2023-06-14T06:16:38;5.13;;;3.10;;
31724;SDS011;18306;40.960;14.836;2023-06-14T06:19:05;6.38;;;3.58;;
31724;SDS011;18306;40.960;14.836;2023-06-14T06:21:32;6.65;;;3.33;;
31724;SDS011;18306;40.960;14.836;2023-06-14T06:23:59;5.65;;;2.67;;
31724;SDS011;18306;40.960;14.836;2023-06-14T06:26:29;3.83;;;2.70;;
31724;SDS011;18306;40.960;14.836;2023-06-14T06:28:57;5.97;;;3.65;;
31724;SDS011;18306;40.960;14.836;2023-06-14T06:31:24;6.10;;;3.28;;
31724;SDS011;18306;40.960;14.836;2023-06-14T06:33:55;6.32;;;3.80;;
31724;SDS011;18306;40.960;14.836;2023-06-14T06:36:22;5.38;;;3.45;;
31724;SDS011;18306;40.960;14.836;2023-06-14T06:38:49;4.53;;;2.85;;
31724;SDS011;18306;40.960;14.836;2023-06-14T06:41:16;5.32;;;2.63;;
31724;SDS011;18306;40.960;14.836;2023-06-14T06:43:43;6.50;;;2.40;;
31724;SDS011;18306;40.960;14.836;2023-06-14T06:46:10;6.65;;;2.67;;
31724;SDS011;18306;40.960;14.836;2023-06-14T06:48:39;5.40;;;3.55;;
31724;SDS011;18306;40.960;14.836;2023-06-14T06:51:06;5.63;;;2.85;;
31724;SDS011;18306;40.960;14.836;2023-06-14T06:53:33;6.85;;;3.72;;
31724;SDS011;18306;40.960;14.836;2023-06-14T06:56:00;4.40;;;3.05;;
31724;SDS011;18306;40.960;14.836;2023-06-14T06:58:27;4.43;;;3.55;;
31724;SDS011;18306;40.960;14.836;2023-06-14T07:00:54;4.95;;;3.13;;
31724;SDS011;18306;40.960;14.836;2023-06-14T07:03:22;5.53;;;3.40;;
31724;SDS011;18306;40.960;14.836;2023-06-14T07:05:49;6.25;;;2.78;;
31724;SDS011;18306;40.960;14.836;2023-06-14T07:08:18;4.47;;;2.95;;
31724;SDS011;18306;40.960;14.836;2023-06-14T07:10:45;9.15;;;3.45;;
31724;SDS011;18306;40.960;14.836;2023-06-14T07:13:12;8.75;;;3.42;;
31724;SDS011;18306;40.960;14.836;2023-06-14T07:15:40;6.68;;;3.33;;
31724;SDS011;18306;40.960;14.836;2023-06-14T07:18:07;7.47;;;3.22;;
31724;SDS011;18306;40.960;14.836;2023-06-14T07:20:34;2.63;;;2.10;;
31724;SDS011;18306;40.960;14.836;2023-06-14T07:23:04;4.35;;;3.13;;
31724;SDS011;18306;40.960;14.836;2023-06-14T07:25:31;9.05;;;4.95;;
31724;SDS011;18306;40.960;14.836;2023-06-14T07:27:59;12.65;;;6.00;;
31724;SDS011;18306;40.960;14.836;2023-06-14T07:30:28;28.52;;;13.15;;
31724;SDS011;18306;40.960;14.836;2023-06-14T07:32:59;31.20;;;14.13;;
31724;SDS011;18306;40.960;14.836;2023-06-14T07:35:26;31.40;;;15.25;;
31724;SDS011;18306;40.960;14.836;2023-06-14T07:37:54;20.05;;;7.93;;
31724;SDS011;18306;40.960;14.836;2023-06-14T07:40:21;23.40;;;8.50;;
31724;SDS011;18306;40.960;14.836;2023-06-14T07:42:48;24.13;;;11.55;;
31724;SDS011;18306;40.960;14.836;2023-06-14T07:45:16;22.23;;;10.63;;
31724;SDS011;18306;40.960;14.836;2023-06-14T07:47:44;13.80;;;4.57;;
31724;SDS011;18306;40.960;14.836;2023-06-14T07:50:11;10.63;;;5.65;;
31724;SDS011;18306;40.960;14.836;2023-06-14T07:52:39;8.98;;;4.53;;
31724;SDS011;18306;40.960;14.836;2023-06-14T07:55:07;10.93;;;5.25;;
31724;SDS011;18306;40.960;14.836;2023-06-14T07:57:35;12.95;;;5.72;;
31724;SDS011;18306;40.960;14.836;2023-06-14T08:00:03;9.95;;;4.97;;
31724;SDS011;18306;40.960;14.836;2023-06-14T08:02:38;5.53;;;3.78;;
31724;SDS011;18306;40.960;14.836;2023-06-14T08:05:05;9.73;;;3.00;;
31724;SDS011;18306;40.960;14.836;2023-06-14T08:07:32;5.30;;;3.65;;
31724;SDS011;18306;40.960;14.836;2023-06-14T08:09:59;4.43;;;2.75;;
31724;SDS011;18306;40.960;14.836;2023-06-14T08:12:26;3.67;;;2.15;;
31724;SDS011;18306;40.960;14.836;2023-06-14T08:14:54;1.42;;;1.33;;
31724;SDS011;18306;40.960;14.836;2023-06-14T08:17:22;4.80;;;1.90;;
31724;SDS011;18306;40.960;14.836;2023-06-14T08:19:52;2.90;;;1.70;;
31724;SDS011;18306;40.960;14.836;2023-06-14T08:22:23;11.18;;;4.05;;
31724;SDS011;18306;40.960;14.836;2023-06-14T08:24:55;3.80;;;1.65;;
31724;SDS011;18306;40.960;14.836;2023-06-14T08:27:35;5.30;;;2.40;;
31724;SDS011;18306;40.960;14.836;2023-06-14T08:30:02;6.43;;;2.30;;
31724;SDS011;18306;40.960;14.836;2023-06-14T08:32:31;5.75;;;1.60;;
31724;SDS011;18306;40.960;14.836;2023-06-14T08:34:58;3.10;;;2.15;;
31724;SDS011;18306;40.960;14.836;2023-06-14T08:37:25;1.85;;;1.02;;
31724;SDS011;18306;40.960;14.836;2023-06-14T08:39:53;6.40;;;4.45;;
31724;SDS011;18306;40.960;14.836;2023-06-14T08:42:20;3.85;;;2.22;;
31724;SDS011;18306;40.960;14.836;2023-06-14T08:44:49;2.38;;;1.63;;
31724;SDS011;18306;40.960;14.836;2023-06-14T08:47:17;2.10;;;1.30;;
31724;SDS011;18306;40.960;14.836;2023-06-14T08:49:45;7.28;;;1.50;;
31724;SDS011;18306;40.960;14.836;2023-06-14T08:52:16;2.35;;;1.23;;
31724;SDS011;18306;40.960;14.836;2023-06-14T08:54:47;3.08;;;2.00;;
31724;SDS011;18306;40.960;14.836;2023-06-14T08:57:15;1.67;;;1.40;;
31724;SDS011;18306;40.960;14.836;2023-06-14T08:59:47;4.82;;;1.80;;
31724;SDS011;18306;40.960;14.836;2023-06-14T09:02:24;3.63;;;1.45;;
31724;SDS011;18306;40.960;14.836;2023-06-14T09:04:51;1.77;;;1.30;;
31724;SDS011;18306;40.960;14.836;2023-06-14T09:07:21;2.22;;;1.88;;
31724;SDS011;18306;40.960;14.836;2023-06-14T09:10:04;1.83;;;1.30;;
31724;SDS011;18306;40.960;14.836;2023-06-14T09:12:42;2.80;;;1.48;;
31724;SDS011;18306;40.960;14.836;2023-06-14T09:15:09;2.70;;;1.70;;
31724;SDS011;18306;40.960;14.836;2023-06-14T09:17:37;4.05;;;2.17;;
31724;SDS011;18306;40.960;14.836;2023-06-14T09:20:05;3.30;;;1.70;;
31724;SDS011;18306;40.960;14.836;2023-06-14T09:22:39;3.63;;;1.73;;
31724;SDS011;18306;40.960;14.836;2023-06-14T09:25:07;1.80;;;1.50;;
31724;SDS011;18306;40.960;14.836;2023-06-14T09:27:35;2.72;;;1.70;;
31724;SDS011;18306;40.960;14.836;2023-06-14T09:30:06;6.65;;;1.60;;
31724;SDS011;18306;40.960;14.836;2023-06-14T09:32:41;4.57;;;1.55;;
31724;SDS011;18306;40.960;14.836;2023-06-14T09:35:09;5.45;;;2.60;;
31724;SDS011;18306;40.960;14.836;2023-06-14T09:37:36;3.50;;;2.08;;
31724;SDS011;18306;40.960;14.836;2023-06-14T09:40:07;7.00;;;3.53;;
31724;SDS011;18306;40.960;14.836;2023-06-14T09:42:34;5.30;;;2.80;;
31724;SDS011;18306;40.960;14.836;2023-06-14T09:45:03;3.15;;;2.42;;
31724;SDS011;18306;40.960;14.836;2023-06-14T09:47:34;4.50;;;1.90;;
31724;SDS011;18306;40.960;14.836;2023-06-14T09:50:05;19.77;;;9.32;;
31724;SDS011;18306;40.960;14.836;2023-06-14T09:52:33;29.63;;;14.77;;
31724;SDS011;18306;40.960;14.836;2023-06-14T09:55:01;25.88;;;12.75;;
31724;SDS011;18306;40.960;14.836;2023-06-14T09:57:41;16.80;;;9.98;;
31724;SDS011;18306;40.960;14.836;2023-06-14T10:00:10;18.90;;;7.05;;
31724;SDS011;18306;40.960;14.836;2023-06-14T10:02:41;6.70;;;3.92;;
31724;SDS011;18306;40.960;14.836;2023-06-14T10:05:15;2.58;;;2.15;;
31724;SDS011;18306;40.960;14.836;2023-06-14T10:10:14;3.17;;;2.33;;
31724;SDS011;18306;40.960;14.836;2023-06-14T10:12:41;4.45;;;2.70;;
31724;SDS011;18306;40.960;14.836;2023-06-14T10:15:09;7.57;;;1.90;;
31724;SDS011;18306;40.960;14.836;2023-06-14T10:20:33;2.17;;;1.80;;
31724;SDS011;18306;40.960;14.836;2023-06-14T10:23:11;4.40;;;2.50;;
31724;SDS011;18306;40.960;14.836;2023-06-14T10:25:43;4.60;;;2.38;;
31724;SDS011;18306;40.960;14.836;2023-06-14T10:28:14;2.92;;;2.03;;
31724;SDS011;18306;40.960;14.836;2023-06-14T10:31:02;2.63;;;2.05;;
31724;SDS011;18306;40.960;14.836;2023-06-14T10:33:34;2.60;;;1.88;;
31724;SDS011;18306;40.960;14.836;2023-06-14T10:36:26;3.85;;;2.47;;
31724;SDS011;18306;40.960;14.836;2023-06-14T10:38:58;3.63;;;2.03;;
31724;SDS011;18306;40.960;14.836;2023-06-14T10:41:34;1.83;;;1.65;;
31724;SDS011;18306;40.960;14.836;2023-06-14T10:46:40;3.38;;;2.30;;
31724;SDS011;18306;40.960;14.836;2023-06-14T10:49:15;9.60;;;2.42;;
31724;SDS011;18306;40.960;14.836;2023-06-14T10:51:50;6.15;;;2.22;;
31724;SDS011;18306;40.960;14.836;2023-06-14T10:54:22;16.15;;;3.03;;
31724;SDS011;18306;40.960;14.836;2023-06-14T10:56:50;7.22;;;1.95;;
31724;SDS011;18306;40.960;14.836;2023-06-14T10:59:19;8.18;;;2.28;;
31724;SDS011;18306;40.960;14.836;2023-06-14T11:01:52;2.58;;;1.95;;
31724;SDS011;18306;40.960;14.836;2023-06-14T11:04:49;1.77;;;1.45;;
31724;SDS011;18306;40.960;14.836;2023-06-14T11:12:48;8.88;;;2.45;;
31724;SDS011;18306;40.960;14.836;2023-06-14T11:15:16;3.00;;;2.35;;
31724;SDS011;18306;40.960;14.836;2023-06-14T11:17:50;2.70;;;1.95;;
31724;SDS011;18306;40.960;14.836;2023-06-14T11:20:19;2.83;;;2.17;;
31724;SDS011;18306;40.960;14.836;2023-06-14T11:22:47;2.08;;;1.85;;
31724;SDS011;18306;40.960;14.836;2023-06-14T11:25:14;3.67;;;2.03;;
31724;SDS011;18306;40.960;14.836;2023-06-14T11:27:41;2.80;;;2.05;;
31724;SDS011;18306;40.960;14.836;2023-06-14T11:30:09;8.15;;;2.08;;
31724;SDS011;18306;40.960;14.836;2023-06-14T11:32:37;7.28;;;2.33;;
31724;SDS011;18306;40.960;14.836;2023-06-14T11:35:05;5.38;;;2.55;;
31724;SDS011;18306;40.960;14.836;2023-06-14T11:37:33;2.95;;;2.13;;
31724;SDS011;18306;40.960;14.836;2023-06-14T11:40:00;3.80;;;2.63;;
31724;SDS011;18306;40.960;14.836;2023-06-14T11:42:34;9.48;;;2.55;;
31724;SDS011;18306;40.960;14.836;2023-06-14T11:45:02;11.38;;;2.30;;
31724;SDS011;18306;40.960;14.836;2023-06-14T11:47:37;3.28;;;1.98;;
31724;SDS011;18306;40.960;14.836;2023-06-14T11:50:06;4.93;;;2.33;;
31724;SDS011;18306;40.960;14.836;2023-06-14T11:52:35;3.08;;;1.95;;
31724;SDS011;18306;40.960;14.836;2023-06-14T11:55:04;2.55;;;1.88;;
31724;SDS011;18306;40.960;14.836;2023-06-14T11:57:35;3.60;;;1.98;;
31724;SDS011;18306;40.960;14.836;2023-06-14T12:00:03;2.33;;;1.52;;
31724;SDS011;18306;40.960;14.836;2023-06-14T12:02:41;2.22;;;1.67;;
31724;SDS011;18306;40.960;14.836;2023-06-14T12:05:08;4.18;;;2.28;;
31724;SDS011;18306;40.960;14.836;2023-06-14T12:07:38;2.13;;;1.75;;
31724;SDS011;18306;40.960;14.836;2023-06-14T12:10:08;3.08;;;1.98;;
31724;SDS011;18306;40.960;14.836;2023-06-14T12:12:37;5.80;;;2.10;;
31724;SDS011;18306;40.960;14.836;2023-06-14T12:15:06;2.75;;;2.15;;
31724;SDS011;18306;40.960;14.836;2023-06-14T12:17:34;2.50;;;1.38;;
31724;SDS011;18306;40.960;14.836;2023-06-14T12:20:06;2.33;;;1.35;;
31724;SDS011;18306;40.960;14.836;2023-06-14T12:23:21;2.65;;;1.67;;
31724;SDS011;18306;40.960;14.836;2023-06-14T12:25:41;3.40;;;1.77;;
31724;SDS011;18306;40.960;14.836;2023-06-14T12:28:10;1.45;;;1.33;;
31724;SDS011;18306;40.960;14.836;2023-06-14T12:30:37;1.58;;;1.33;;
31724;SDS011;18306;40.960;14.836;2023-06-14T12:33:05;2.53;;;1.65;;
31724;SDS011;18306;40.960;14.836;2023-06-14T12:35:33;2.47;;;1.58;;
31724;SDS011;18306;40.960;14.836;2023-06-14T12:38:01;1.80;;;1.70;;
31724;SDS011;18306;40.960;14.836;2023-06-14T12:40:29;3.05;;;2.05;;
31724;SDS011;18306;40.960;14.836;2023-06-14T12:43:03;3.80;;;1.90;;
31724;SDS011;18306;40.960;14.836;2023-06-14T12:45:33;3.33;;;2.00;;
31724;SDS011;18306;40.960;14.836;2023-06-14T12:48:00;4.90;;;2.10;;
31724;SDS011;18306;40.960;14.836;2023-06-14T12:50:28;1.63;;;1.50;;
31724;SDS011;18306;40.960;14.836;2023-06-14T12:52:56;2.17;;;1.88;;
31724;SDS011;18306;40.960;14.836;2023-06-14T12:55:25;4.13;;;2.17;;
31724;SDS011;18306;40.960;14.836;2023-06-14T12:57:53;2.22;;;1.65;;
31724;SDS011;18306;40.960;14.836;2023-06-14T13:00:20;12.25;;;2.42;;
31724;SDS011;18306;40.960;14.836;2023-06-14T13:02:49;2.45;;;1.95;;
31724;SDS011;18306;40.960;14.836;2023-06-14T13:05:17;5.55;;;1.98;;
31724;SDS011;18306;40.960;14.836;2023-06-14T13:07:45;3.78;;;2.08;;
31724;SDS011;18306;40.960;14.836;2023-06-14T13:10:12;2.30;;;1.70;;
31724;SDS011;18306;40.960;14.836;2023-06-14T13:12:40;5.45;;;1.80;;
31724;SDS011;18306;40.960;14.836;2023-06-14T13:15:08;3.55;;;2.55;;
31724;SDS011;18306;40.960;14.836;2023-06-14T13:17:38;7.55;;;1.85;;
31724;SDS011;18306;40.960;14.836;2023-06-14T13:20:06;1.83;;;1.50;;
31724;SDS011;18306;40.960;14.836;2023-06-14T13:22:37;3.92;;;1.67;;
31724;SDS011;18306;40.960;14.836;2023-06-14T13:25:08;2.30;;;1.90;;
31724;SDS011;18306;40.960;14.836;2023-06-14T13:27:35;3.97;;;1.88;;
31724;SDS011;18306;40.960;14.836;2023-06-14T13:30:05;2.38;;;1.90;;
31724;SDS011;18306;40.960;14.836;2023-06-14T13:32:33;2.50;;;1.70;;
31724;SDS011;18306;40.960;14.836;2023-06-14T13:35:04;5.32;;;1.80;;
31724;SDS011;18306;40.960;14.836;2023-06-14T13:37:32;2.25;;;1.88;;
31724;SDS011;18306;40.960;14.836;2023-06-14T13:39:59;3.20;;;1.90;;
31724;SDS011;18306;40.960;14.836;2023-06-14T13:42:32;2.60;;;1.73;;
31724;SDS011;18306;40.960;14.836;2023-06-14T13:44:59;2.17;;;1.85;;
31724;SDS011;18306;40.960;14.836;2023-06-14T13:47:26;2.40;;;1.42;;
31724;SDS011;18306;40.960;14.836;2023-06-14T13:49:53;1.70;;;1.42;;
31724;SDS011;18306;40.960;14.836;2023-06-14T13:52:20;2.10;;;1.60;;
31724;SDS011;18306;40.960;14.836;2023-06-14T13:54:48;1.50;;;1.23;;
31724;SDS011;18306;40.960;14.836;2023-06-14T13:57:15;1.98;;;1.55;;
31724;SDS011;18306;40.960;14.836;2023-06-14T13:59:43;3.67;;;1.65;;
31724;SDS011;18306;40.960;14.836;2023-06-14T14:02:13;14.18;;;1.40;;
31724;SDS011;18306;40.960;14.836;2023-06-14T14:04:41;3.03;;;1.20;;
31724;SDS011;18306;40.960;14.836;2023-06-14T14:07:08;2.00;;;1.65;;
31724;SDS011;18306;40.960;14.836;2023-06-14T14:09:35;1.70;;;1.50;;
31724;SDS011;18306;40.960;14.836;2023-06-14T14:12:03;1.23;;;1.13;;
31724;SDS011;18306;40.960;14.836;2023-06-14T14:14:32;4.75;;;1.98;;
31724;SDS011;18306;40.960;14.836;2023-06-14T14:16:59;2.38;;;1.50;;
31724;SDS011;18306;40.960;14.836;2023-06-14T14:19:26;2.03;;;1.70;;
31724;SDS011;18306;40.960;14.836;2023-06-14T14:21:56;2.80;;;2.08;;
31724;SDS011;18306;40.960;14.836;2023-06-14T14:24:23;4.70;;;1.52;;
31724;SDS011;18306;40.960;14.836;2023-06-14T14:26:51;2.17;;;1.60;;
31724;SDS011;18306;40.960;14.836;2023-06-14T14:29:19;4.47;;;1.75;;
31724;SDS011;18306;40.960;14.836;2023-06-14T14:31:47;2.00;;;1.77;;
31724;SDS011;18306;40.960;14.836;2023-06-14T14:34:16;5.80;;;1.17;;
31724;SDS011;18306;40.960;14.836;2023-06-14T14:36:44;2.95;;;1.73;;
31724;SDS011;18306;40.960;14.836;2023-06-14T14:39:11;2.33;;;1.17;;
31724;SDS011;18306;40.960;14.836;2023-06-14T14:41:38;4.50;;;2.00;;
31724;SDS011;18306;40.960;14.836;2023-06-14T14:44:06;2.15;;;1.42;;
31724;SDS011;18306;40.960;14.836;2023-06-14T14:46:33;3.10;;;1.80;;
31724;SDS011;18306;40.960;14.836;2023-06-14T14:49:00;1.75;;;1.40;;
31724;SDS011;18306;40.960;14.836;2023-06-14T14:51:27;5.45;;;1.90;;
31724;SDS011;18306;40.960;14.836;2023-06-14T14:53:54;3.97;;;1.58;;
31724;SDS011;18306;40.960;14.836;2023-06-14T14:56:22;5.65;;;1.70;;
31724;SDS011;18306;40.960;14.836;2023-06-14T14:58:56;1.95;;;1.73;;
31724;SDS011;18306;40.960;14.836;2023-06-14T15:01:23;2.00;;;1.65;;
31724;SDS011;18306;40.960;14.836;2023-06-14T15:03:50;3.10;;;2.08;;
31724;SDS011;18306;40.960;14.836;2023-06-14T15:06:17;3.45;;;2.08;;